Terminal Aerodrome Forecast
Issued by NWS Sioux Falls, SD

Home | Current Version | Previous Version | Graphics & Text | Print | Product List | Glossary On
Versions: 1 2 3 4 5 6 7 8 9 10 11 12 13 14 15 16
460
FTUS43 KFSD 091127
TAFHON
TAF
KHON 091127Z 0912/1012 34011KT P6SM BKN030
     FM091500 33006KT P6SM SCT080
     FM091900 27007KT P6SM SCT250=

USA.gov is the U.S. government's official web portal to all federal, state and local government web resources and services.